sensor_id;sensor_type;location;lat;lon;timestamp;P1;durP1;ratioP1;P2;durP2;ratioP2
34902;SDS011;21114;44.840;0.214;2023-01-24T00:02:28;7.65;;;5.82;;
34902;SDS011;21114;44.840;0.214;2023-01-24T00:04:55;6.90;;;4.95;;
34902;SDS011;21114;44.840;0.214;2023-01-24T00:07:21;9.23;;;5.53;;
34902;SDS011;21114;44.840;0.214;2023-01-24T00:09:47;7.35;;;5.78;;
34902;SDS011;21114;44.840;0.214;2023-01-24T00:12:13;8.40;;;6.32;;
34902;SDS011;21114;44.840;0.214;2023-01-24T00:14:39;7.45;;;5.97;;
34902;SDS011;21114;44.840;0.214;2023-01-24T00:17:05;6.50;;;5.47;;
34902;SDS011;21114;44.840;0.214;2023-01-24T00:19:33;7.60;;;6.05;;
34902;SDS011;21114;44.840;0.214;2023-01-24T00:21:59;7.45;;;5.63;;
34902;SDS011;21114;44.840;0.214;2023-01-24T00:25:14;6.35;;;5.47;;
34902;SDS011;21114;44.840;0.214;2023-01-24T00:27:40;7.45;;;5.85;;
34902;SDS011;21114;44.840;0.214;2023-01-24T00:30:06;9.38;;;6.93;;
34902;SDS011;21114;44.840;0.214;2023-01-24T00:32:32;7.00;;;5.28;;
34902;SDS011;21114;44.840;0.214;2023-01-24T00:34:58;7.15;;;5.70;;
34902;SDS011;21114;44.840;0.214;2023-01-24T00:37:25;8.00;;;6.25;;
34902;SDS011;21114;44.840;0.214;2023-01-24T00:40:28;8.85;;;6.25;;
34902;SDS011;21114;44.840;0.214;2023-01-24T00:42:54;7.22;;;6.03;;
34902;SDS011;21114;44.840;0.214;2023-01-24T00:45:20;8.45;;;6.65;;
34902;SDS011;21114;44.840;0.214;2023-01-24T00:47:46;7.50;;;5.78;;
34902;SDS011;21114;44.840;0.214;2023-01-24T00:50:12;11.50;;;6.47;;
34902;SDS011;21114;44.840;0.214;2023-01-24T00:52:38;7.53;;;5.82;;
34902;SDS011;21114;44.840;0.214;2023-01-24T00:55:04;7.95;;;5.90;;
34902;SDS011;21114;44.840;0.214;2023-01-24T00:57:30;7.15;;;5.95;;
34902;SDS011;21114;44.840;0.214;2023-01-24T00:59:56;9.00;;;6.63;;
34902;SDS011;21114;44.840;0.214;2023-01-24T01:02:22;7.28;;;5.25;;
34902;SDS011;21114;44.840;0.214;2023-01-24T01:04:48;6.70;;;5.28;;
34902;SDS011;21114;44.840;0.214;2023-01-24T01:07:14;6.63;;;5.45;;
34902;SDS011;21114;44.840;0.214;2023-01-24T01:09:41;6.63;;;5.80;;
34902;SDS011;21114;44.840;0.214;2023-01-24T01:12:07;6.00;;;5.40;;
34902;SDS011;21114;44.840;0.214;2023-01-24T01:15:22;7.28;;;5.57;;
34902;SDS011;21114;44.840;0.214;2023-01-24T01:17:48;7.43;;;6.10;;
34902;SDS011;21114;44.840;0.214;2023-01-24T01:20:14;8.02;;;5.68;;
34902;SDS011;21114;44.840;0.214;2023-01-24T01:22:40;6.07;;;5.07;;
34902;SDS011;21114;44.840;0.214;2023-01-24T01:25:06;6.40;;;5.18;;
34902;SDS011;21114;44.840;0.214;2023-01-24T01:27:32;7.40;;;6.00;;
34902;SDS011;21114;44.840;0.214;2023-01-24T01:29:59;6.60;;;5.30;;
34902;SDS011;21114;44.840;0.214;2023-01-24T01:32:25;6.07;;;5.20;;
34902;SDS011;21114;44.840;0.214;2023-01-24T01:34:51;7.25;;;5.53;;
34902;SDS011;21114;44.840;0.214;2023-01-24T01:37:17;5.32;;;4.65;;
34902;SDS011;21114;44.840;0.214;2023-01-24T01:39:43;6.03;;;5.38;;
34902;SDS011;21114;44.840;0.214;2023-01-24T01:42:09;6.10;;;5.50;;
34902;SDS011;21114;44.840;0.214;2023-01-24T01:44:38;7.47;;;6.78;;
34902;SDS011;21114;44.840;0.214;2023-01-24T01:47:53;8.70;;;5.63;;
34902;SDS011;21114;44.840;0.214;2023-01-24T01:50:22;6.53;;;5.28;;
34902;SDS011;21114;44.840;0.214;2023-01-24T01:53:45;5.90;;;5.28;;
34902;SDS011;21114;44.840;0.214;2023-01-24T01:57:02;7.20;;;5.78;;
34902;SDS011;21114;44.840;0.214;2023-01-24T02:00:19;6.70;;;5.85;;
34902;SDS011;21114;44.840;0.214;2023-01-24T02:03:36;6.15;;;5.47;;
34902;SDS011;21114;44.840;0.214;2023-01-24T02:09:45;6.50;;;4.82;;
34902;SDS011;21114;44.840;0.214;2023-01-24T02:13:29;6.63;;;5.30;;
34902;SDS011;21114;44.840;0.214;2023-01-24T02:15:56;7.38;;;5.35;;
34902;SDS011;21114;44.840;0.214;2023-01-24T02:18:30;7.40;;;6.57;;
34902;SDS011;21114;44.840;0.214;2023-01-24T02:21:45;7.03;;;5.82;;
34902;SDS011;21114;44.840;0.214;2023-01-24T02:24:42;8.48;;;5.78;;
34902;SDS011;21114;44.840;0.214;2023-01-24T02:28:00;6.70;;;5.68;;
34902;SDS011;21114;44.840;0.214;2023-01-24T02:31:16;6.47;;;5.57;;
34902;SDS011;21114;44.840;0.214;2023-01-24T02:33:42;5.80;;;5.20;;
34902;SDS011;21114;44.840;0.214;2023-01-24T02:36:13;9.02;;;6.38;;
34902;SDS011;21114;44.840;0.214;2023-01-24T02:39:31;5.78;;;4.95;;
34902;SDS011;21114;44.840;0.214;2023-01-24T02:42:41;6.78;;;5.82;;
34902;SDS011;21114;44.840;0.214;2023-01-24T02:45:14;6.57;;;5.38;;
34902;SDS011;21114;44.840;0.214;2023-01-24T02:48:30;7.03;;;5.53;;
34902;SDS011;21114;44.840;0.214;2023-01-24T02:50:56;5.43;;;4.38;;
34902;SDS011;21114;44.840;0.214;2023-01-24T02:53:48;8.43;;;6.20;;
34902;SDS011;21114;44.840;0.214;2023-01-24T02:56:14;7.50;;;5.93;;
34902;SDS011;21114;44.840;0.214;2023-01-24T02:59:09;6.40;;;5.45;;
34902;SDS011;21114;44.840;0.214;2023-01-24T03:01:36;6.80;;;5.30;;
34902;SDS011;21114;44.840;0.214;2023-01-24T03:04:02;7.07;;;5.78;;
34902;SDS011;21114;44.840;0.214;2023-01-24T03:06:28;5.97;;;4.97;;
34902;SDS011;21114;44.840;0.214;2023-01-24T03:08:54;15.07;;;5.60;;
34902;SDS011;21114;44.840;0.214;2023-01-24T03:11:20;8.55;;;6.47;;
34902;SDS011;21114;44.840;0.214;2023-01-24T03:13:46;7.13;;;6.38;;
34902;SDS011;21114;44.840;0.214;2023-01-24T03:16:40;7.60;;;5.88;;
34902;SDS011;21114;44.840;0.214;2023-01-24T03:19:35;7.53;;;6.03;;
34902;SDS011;21114;44.840;0.214;2023-01-24T03:22:29;7.28;;;6.05;;
34902;SDS011;21114;44.840;0.214;2023-01-24T03:25:23;7.40;;;5.13;;
34902;SDS011;21114;44.840;0.214;2023-01-24T03:28:17;7.60;;;5.40;;
34902;SDS011;21114;44.840;0.214;2023-01-24T03:31:12;7.00;;;5.70;;
34902;SDS011;21114;44.840;0.214;2023-01-24T03:34:06;7.28;;;6.10;;
34902;SDS011;21114;44.840;0.214;2023-01-24T03:37:00;8.63;;;6.57;;
34902;SDS011;21114;44.840;0.214;2023-01-24T03:39:26;7.00;;;5.93;;
34902;SDS011;21114;44.840;0.214;2023-01-24T03:42:21;7.30;;;5.82;;
34902;SDS011;21114;44.840;0.214;2023-01-24T03:44:47;9.65;;;6.15;;
34902;SDS011;21114;44.840;0.214;2023-01-24T03:47:14;8.63;;;5.95;;
34902;SDS011;21114;44.840;0.214;2023-01-24T03:49:40;7.20;;;5.90;;
34902;SDS011;21114;44.840;0.214;2023-01-24T03:52:34;8.43;;;6.68;;
34902;SDS011;21114;44.840;0.214;2023-01-24T03:55:00;8.57;;;6.05;;
34902;SDS011;21114;44.840;0.214;2023-01-24T03:57:27;8.73;;;6.28;;
34902;SDS011;21114;44.840;0.214;2023-01-24T04:00:42;8.45;;;6.20;;
34902;SDS011;21114;44.840;0.214;2023-01-24T04:03:08;9.23;;;6.82;;
34902;SDS011;21114;44.840;0.214;2023-01-24T04:05:34;10.77;;;6.63;;
34902;SDS011;21114;44.840;0.214;2023-01-24T04:08:00;7.78;;;6.28;;
34902;SDS011;21114;44.840;0.214;2023-01-24T04:11:17;8.90;;;6.45;;
34902;SDS011;21114;44.840;0.214;2023-01-24T04:13:43;7.97;;;7.07;;
34902;SDS011;21114;44.840;0.214;2023-01-24T04:16:09;7.22;;;6.22;;
34902;SDS011;21114;44.840;0.214;2023-01-24T04:18:35;8.18;;;7.38;;
34902;SDS011;21114;44.840;0.214;2023-01-24T04:21:02;8.02;;;6.35;;
34902;SDS011;21114;44.840;0.214;2023-01-24T04:24:17;7.53;;;5.70;;
34902;SDS011;21114;44.840;0.214;2023-01-24T04:26:43;7.05;;;5.97;;
34902;SDS011;21114;44.840;0.214;2023-01-24T04:29:09;7.75;;;6.07;;
34902;SDS011;21114;44.840;0.214;2023-01-24T04:31:35;8.77;;;6.82;;
34902;SDS011;21114;44.840;0.214;2023-01-24T04:34:01;7.70;;;5.70;;
34902;SDS011;21114;44.840;0.214;2023-01-24T04:36:27;8.90;;;6.05;;
34902;SDS011;21114;44.840;0.214;2023-01-24T04:38:54;7.82;;;6.30;;
34902;SDS011;21114;44.840;0.214;2023-01-24T04:42:09;8.40;;;6.40;;
34902;SDS011;21114;44.840;0.214;2023-01-24T04:44:35;7.57;;;6.30;;
34902;SDS011;21114;44.840;0.214;2023-01-24T04:47:01;8.18;;;6.72;;
34902;SDS011;21114;44.840;0.214;2023-01-24T04:49:27;8.45;;;6.35;;
34902;SDS011;21114;44.840;0.214;2023-01-24T04:51:53;7.88;;;6.13;;
34902;SDS011;21114;44.840;0.214;2023-01-24T04:54:19;7.53;;;6.15;;
34902;SDS011;21114;44.840;0.214;2023-01-24T04:56:46;7.97;;;6.22;;
34902;SDS011;21114;44.840;0.214;2023-01-24T04:59:12;10.43;;;6.90;;
34902;SDS011;21114;44.840;0.214;2023-01-24T05:02:28;6.93;;;5.55;;
34902;SDS011;21114;44.840;0.214;2023-01-24T05:04:54;8.57;;;7.68;;
34902;SDS011;21114;44.840;0.214;2023-01-24T05:07:20;8.95;;;6.63;;
34902;SDS011;21114;44.840;0.214;2023-01-24T05:09:46;8.57;;;7.03;;
34902;SDS011;21114;44.840;0.214;2023-01-24T05:12:12;9.38;;;8.35;;
34902;SDS011;21114;44.840;0.214;2023-01-24T05:14:38;8.30;;;6.50;;
34902;SDS011;21114;44.840;0.214;2023-01-24T05:17:04;7.72;;;6.38;;
34902;SDS011;21114;44.840;0.214;2023-01-24T05:19:30;7.75;;;6.07;;
34902;SDS011;21114;44.840;0.214;2023-01-24T05:21:57;6.30;;;5.43;;
34902;SDS011;21114;44.840;0.214;2023-01-24T05:24:23;9.02;;;7.40;;
34902;SDS011;21114;44.840;0.214;2023-01-24T05:26:49;7.82;;;6.57;;
34902;SDS011;21114;44.840;0.214;2023-01-24T05:29:15;8.25;;;6.00;;
34902;SDS011;21114;44.840;0.214;2023-01-24T05:31:41;8.23;;;6.03;;
34902;SDS011;21114;44.840;0.214;2023-01-24T05:34:07;8.45;;;7.03;;
34902;SDS011;21114;44.840;0.214;2023-01-24T05:36:33;7.47;;;5.85;;
34902;SDS011;21114;44.840;0.214;2023-01-24T05:38:59;8.48;;;7.28;;
34902;SDS011;21114;44.840;0.214;2023-01-24T05:42:14;9.38;;;6.80;;
34902;SDS011;21114;44.840;0.214;2023-01-24T05:44:40;7.82;;;6.05;;
34902;SDS011;21114;44.840;0.214;2023-01-24T05:47:06;9.18;;;7.07;;
34902;SDS011;21114;44.840;0.214;2023-01-24T05:49:33;10.00;;;6.82;;
34902;SDS011;21114;44.840;0.214;2023-01-24T05:51:59;8.80;;;7.35;;
34902;SDS011;21114;44.840;0.214;2023-01-24T05:54:25;8.30;;;6.47;;
34902;SDS011;21114;44.840;0.214;2023-01-24T05:56:51;9.10;;;6.95;;
34902;SDS011;21114;44.840;0.214;2023-01-24T05:59:17;8.68;;;7.07;;
34902;SDS011;21114;44.840;0.214;2023-01-24T06:01:43;6.50;;;5.75;;
34902;SDS011;21114;44.840;0.214;2023-01-24T06:04:09;9.07;;;6.72;;
34902;SDS011;21114;44.840;0.214;2023-01-24T06:06:35;7.38;;;6.43;;
34902;SDS011;21114;44.840;0.214;2023-01-24T06:09:01;7.78;;;6.95;;
34902;SDS011;21114;44.840;0.214;2023-01-24T06:11:28;9.65;;;6.95;;
34902;SDS011;21114;44.840;0.214;2023-01-24T06:14:30;8.02;;;6.20;;
34902;SDS011;21114;44.840;0.214;2023-01-24T06:16:57;8.13;;;6.07;;
34902;SDS011;21114;44.840;0.214;2023-01-24T06:19:23;8.05;;;6.57;;
34902;SDS011;21114;44.840;0.214;2023-01-24T06:21:57;10.73;;;7.65;;
34902;SDS011;21114;44.840;0.214;2023-01-24T06:25:19;7.50;;;6.03;;
34902;SDS011;21114;44.840;0.214;2023-01-24T06:28:34;11.48;;;7.13;;
34902;SDS011;21114;44.840;0.214;2023-01-24T06:39:23;8.48;;;7.18;;
34902;SDS011;21114;44.840;0.214;2023-01-24T06:41:50;8.38;;;7.07;;
34902;SDS011;21114;44.840;0.214;2023-01-24T06:44:16;7.60;;;6.75;;
34902;SDS011;21114;44.840;0.214;2023-01-24T06:46:42;7.78;;;6.93;;
34902;SDS011;21114;44.840;0.214;2023-01-24T06:49:10;8.15;;;6.40;;
34902;SDS011;21114;44.840;0.214;2023-01-24T06:52:22;8.18;;;6.78;;
34902;SDS011;21114;44.840;0.214;2023-01-24T06:54:49;7.40;;;6.30;;
34902;SDS011;21114;44.840;0.214;2023-01-24T06:57:15;10.45;;;7.22;;
34902;SDS011;21114;44.840;0.214;2023-01-24T06:59:41;9.32;;;7.20;;
34902;SDS011;21114;44.840;0.214;2023-01-24T07:02:08;8.63;;;6.28;;
34902;SDS011;21114;44.840;0.214;2023-01-24T07:05:23;8.80;;;7.50;;
34902;SDS011;21114;44.840;0.214;2023-01-24T07:07:49;8.85;;;6.78;;
34902;SDS011;21114;44.840;0.214;2023-01-24T07:10:15;7.50;;;6.05;;
34902;SDS011;21114;44.840;0.214;2023-01-24T07:12:42;10.27;;;7.85;;
34902;SDS011;21114;44.840;0.214;2023-01-24T07:15:59;8.15;;;6.53;;
34902;SDS011;21114;44.840;0.214;2023-01-24T07:19:15;8.82;;;6.82;;
34902;SDS011;21114;44.840;0.214;2023-01-24T07:22:30;8.90;;;6.40;;
34902;SDS011;21114;44.840;0.214;2023-01-24T07:24:57;7.88;;;6.53;;
34902;SDS011;21114;44.840;0.214;2023-01-24T07:27:23;8.10;;;6.22;;
34902;SDS011;21114;44.840;0.214;2023-01-24T07:29:49;10.52;;;8.40;;
34902;SDS011;21114;44.840;0.214;2023-01-24T07:32:15;11.85;;;6.47;;
34902;SDS011;21114;44.840;0.214;2023-01-24T07:34:42;9.80;;;7.07;;
34902;SDS011;21114;44.840;0.214;2023-01-24T07:37:08;11.02;;;7.43;;
34902;SDS011;21114;44.840;0.214;2023-01-24T07:39:34;8.25;;;7.45;;
34902;SDS011;21114;44.840;0.214;2023-01-24T07:42:00;11.43;;;7.95;;
34902;SDS011;21114;44.840;0.214;2023-01-24T07:44:26;10.00;;;8.10;;
34902;SDS011;21114;44.840;0.214;2023-01-24T07:46:53;11.15;;;7.38;;
34902;SDS011;21114;44.840;0.214;2023-01-24T07:49:19;9.23;;;7.28;;
34902;SDS011;21114;44.840;0.214;2023-01-24T07:51:45;10.98;;;7.05;;
34902;SDS011;21114;44.840;0.214;2023-01-24T07:54:13;10.35;;;8.35;;
34902;SDS011;21114;44.840;0.214;2023-01-24T07:56:39;10.05;;;7.65;;
34902;SDS011;21114;44.840;0.214;2023-01-24T07:59:05;8.02;;;6.95;;
34902;SDS011;21114;44.840;0.214;2023-01-24T08:01:31;10.85;;;7.68;;
34902;SDS011;21114;44.840;0.214;2023-01-24T08:03:57;10.20;;;6.97;;
34902;SDS011;21114;44.840;0.214;2023-01-24T08:06:24;10.43;;;7.30;;
34902;SDS011;21114;44.840;0.214;2023-01-24T08:09:42;9.23;;;6.65;;
34902;SDS011;21114;44.840;0.214;2023-01-24T08:12:08;8.90;;;7.05;;
34902;SDS011;21114;44.840;0.214;2023-01-24T08:14:34;8.60;;;6.50;;
34902;SDS011;21114;44.840;0.214;2023-01-24T08:17:00;12.25;;;7.63;;
34902;SDS011;21114;44.840;0.214;2023-01-24T08:19:26;9.88;;;7.70;;
34902;SDS011;21114;44.840;0.214;2023-01-24T08:21:52;7.90;;;6.68;;
34902;SDS011;21114;44.840;0.214;2023-01-24T08:24:18;10.98;;;7.43;;
34902;SDS011;21114;44.840;0.214;2023-01-24T08:26:45;8.02;;;7.22;;
34902;SDS011;21114;44.840;0.214;2023-01-24T08:29:14;8.38;;;7.00;;
34902;SDS011;21114;44.840;0.214;2023-01-24T08:31:40;10.35;;;6.68;;
34902;SDS011;21114;44.840;0.214;2023-01-24T08:34:06;10.07;;;7.47;;
34902;SDS011;21114;44.840;0.214;2023-01-24T08:36:32;8.07;;;7.07;;
34902;SDS011;21114;44.840;0.214;2023-01-24T08:38:58;8.95;;;7.32;;
34902;SDS011;21114;44.840;0.214;2023-01-24T08:41:24;11.95;;;7.80;;
34902;SDS011;21114;44.840;0.214;2023-01-24T08:43:51;7.72;;;6.40;;
34902;SDS011;21114;44.840;0.214;2023-01-24T08:46:39;11.23;;;7.90;;
34902;SDS011;21114;44.840;0.214;2023-01-24T08:49:05;9.80;;;7.15;;
34902;SDS011;21114;44.840;0.214;2023-01-24T08:51:31;8.00;;;6.78;;
34902;SDS011;21114;44.840;0.214;2023-01-24T08:53:57;9.63;;;7.80;;
34902;SDS011;21114;44.840;0.214;2023-01-24T08:56:23;8.30;;;7.15;;
34902;SDS011;21114;44.840;0.214;2023-01-24T08:58:49;8.02;;;6.35;;
34902;SDS011;21114;44.840;0.214;2023-01-24T09:01:15;8.50;;;6.57;;
34902;SDS011;21114;44.840;0.214;2023-01-24T09:03:42;8.55;;;7.55;;
34902;SDS011;21114;44.840;0.214;2023-01-24T09:06:08;7.78;;;6.13;;
34902;SDS011;21114;44.840;0.214;2023-01-24T09:08:35;8.82;;;6.95;;
34902;SDS011;21114;44.840;0.214;2023-01-24T09:11:01;9.55;;;7.55;;
34902;SDS011;21114;44.840;0.214;2023-01-24T09:13:27;12.30;;;6.93;;
34902;SDS011;21114;44.840;0.214;2023-01-24T09:16:46;10.10;;;7.85;;
34902;SDS011;21114;44.840;0.214;2023-01-24T09:19:12;9.50;;;7.90;;
34902;SDS011;21114;44.840;0.214;2023-01-24T09:21:38;9.90;;;6.97;;
34902;SDS011;21114;44.840;0.214;2023-01-24T09:24:04;7.82;;;6.43;;
34902;SDS011;21114;44.840;0.214;2023-01-24T09:26:30;9.82;;;7.40;;
34902;SDS011;21114;44.840;0.214;2023-01-24T09:28:57;8.93;;;7.03;;
34902;SDS011;21114;44.840;0.214;2023-01-24T09:31:23;9.55;;;8.25;;
34902;SDS011;21114;44.840;0.214;2023-01-24T09:33:49;9.25;;;8.13;;
34902;SDS011;21114;44.840;0.214;2023-01-24T09:36:15;11.23;;;8.32;;
34902;SDS011;21114;44.840;0.214;2023-01-24T09:38:41;9.00;;;6.70;;
34902;SDS011;21114;44.840;0.214;2023-01-24T09:43:48;9.48;;;7.32;;
34902;SDS011;21114;44.840;0.214;2023-01-24T09:48:06;8.73;;;6.50;;
34902;SDS011;21114;44.840;0.214;2023-01-24T09:50:40;8.43;;;6.93;;
34902;SDS011;21114;44.840;0.214;2023-01-24T09:53:55;7.78;;;6.63;;
34902;SDS011;21114;44.840;0.214;2023-01-24T09:57:13;7.18;;;6.40;;
34902;SDS011;21114;44.840;0.214;2023-01-24T10:00:33;8.27;;;6.15;;
34902;SDS011;21114;44.840;0.214;2023-01-24T10:03:49;9.40;;;6.70;;
34902;SDS011;21114;44.840;0.214;2023-01-24T10:06:16;9.93;;;7.50;;
34902;SDS011;21114;44.840;0.214;2023-01-24T10:12:36;9.07;;;7.63;;
34902;SDS011;21114;44.840;0.214;2023-01-24T10:24:32;7.90;;;7.07;;
34902;SDS011;21114;44.840;0.214;2023-01-24T10:27:49;10.70;;;7.18;;
34902;SDS011;21114;44.840;0.214;2023-01-24T10:33:46;7.60;;;6.90;;
34902;SDS011;21114;44.840;0.214;2023-01-24T10:36:49;9.45;;;5.90;;
34902;SDS011;21114;44.840;0.214;2023-01-24T10:40:10;8.82;;;7.97;;
34902;SDS011;21114;44.840;0.214;2023-01-24T10:43:25;8.82;;;6.07;;
34902;SDS011;21114;44.840;0.214;2023-01-24T10:46:42;8.27;;;7.10;;
34902;SDS011;21114;44.840;0.214;2023-01-24T10:49:47;12.75;;;7.20;;
34902;SDS011;21114;44.840;0.214;2023-01-24T10:52:34;8.82;;;6.57;;
34902;SDS011;21114;44.840;0.214;2023-01-24T10:55:01;7.53;;;6.65;;
34902;SDS011;21114;44.840;0.214;2023-01-24T10:58:19;7.78;;;6.57;;
34902;SDS011;21114;44.840;0.214;2023-01-24T11:01:37;6.25;;;5.65;;
34902;SDS011;21114;44.840;0.214;2023-01-24T11:04:52;9.30;;;6.90;;
34902;SDS011;21114;44.840;0.214;2023-01-24T11:07:59;10.02;;;7.43;;
34902;SDS011;21114;44.840;0.214;2023-01-24T11:10:47;7.68;;;6.25;;
34902;SDS011;21114;44.840;0.214;2023-01-24T11:13:38;8.18;;;6.35;;
34902;SDS011;21114;44.840;0.214;2023-01-24T11:16:54;7.25;;;5.82;;
34902;SDS011;21114;44.840;0.214;2023-01-24T11:19:56;12.52;;;7.85;;
34902;SDS011;21114;44.840;0.214;2023-01-24T11:25:55;8.23;;;7.43;;
34902;SDS011;21114;44.840;0.214;2023-01-24T11:29:15;7.07;;;5.78;;
34902;SDS011;21114;44.840;0.214;2023-01-24T11:35:10;7.53;;;6.22;;
34902;SDS011;21114;44.840;0.214;2023-01-24T11:38:27;6.93;;;5.90;;
34902;SDS011;21114;44.840;0.214;2023-01-24T11:41:46;7.78;;;6.15;;
34902;SDS011;21114;44.840;0.214;2023-01-24T11:47:51;8.95;;;6.70;;
34902;SDS011;21114;44.840;0.214;2023-01-24T11:56:48;8.07;;;6.22;;
34902;SDS011;21114;44.840;0.214;2023-01-24T11:59:56;10.05;;;6.25;;
34902;SDS011;21114;44.840;0.214;2023-01-24T12:05:29;8.27;;;6.75;;
34902;SDS011;21114;44.840;0.214;2023-01-24T12:08:47;6.63;;;5.82;;
34902;SDS011;21114;44.840;0.214;2023-01-24T12:25:54;7.88;;;6.47;;
34902;SDS011;21114;44.840;0.214;2023-01-24T12:42:59;7.20;;;4.93;;
34902;SDS011;21114;44.840;0.214;2023-01-24T12:46:21;7.07;;;5.72;;
34902;SDS011;21114;44.840;0.214;2023-01-24T12:49:38;7.90;;;5.75;;
34902;SDS011;21114;44.840;0.214;2023-01-24T12:55:36;6.00;;;5.25;;
34902;SDS011;21114;44.840;0.214;2023-01-24T12:58:34;5.40;;;4.30;;
34902;SDS011;21114;44.840;0.214;2023-01-24T13:10:03;5.05;;;4.55;;
34902;SDS011;21114;44.840;0.214;2023-01-24T13:13:23;7.70;;;6.40;;
34902;SDS011;21114;44.840;0.214;2023-01-24T13:19:39;6.00;;;5.30;;
34902;SDS011;21114;44.840;0.214;2023-01-24T13:31:16;4.82;;;4.43;;
34902;SDS011;21114;44.840;0.214;2023-01-24T13:34:33;6.45;;;4.78;;
34902;SDS011;21114;44.840;0.214;2023-01-24T13:37:49;4.90;;;3.65;;
34902;SDS011;21114;44.840;0.214;2023-01-24T13:52:34;9.80;;;5.35;;
34902;SDS011;21114;44.840;0.214;2023-01-24T13:58:22;8.73;;;4.90;;
34902;SDS011;21114;44.840;0.214;2023-01-24T14:01:43;8.00;;;5.95;;
34902;SDS011;21114;44.840;0.214;2023-01-24T14:04:58;6.32;;;5.70;;
34902;SDS011;21114;44.840;0.214;2023-01-24T14:07:26;5.90;;;5.07;;
34902;SDS011;21114;44.840;0.214;2023-01-24T14:27:29;6.07;;;5.10;;
34902;SDS011;21114;44.840;0.214;2023-01-24T14:36:30;8.85;;;6.15;;
34902;SDS011;21114;44.840;0.214;2023-01-24T14:39:44;5.75;;;4.32;;
34902;SDS011;21114;44.840;0.214;2023-01-24T14:42:12;7.07;;;5.30;;
34902;SDS011;21114;44.840;0.214;2023-01-24T14:45:28;8.30;;;7.50;;
34902;SDS011;21114;44.840;0.214;2023-01-24T14:48:45;7.03;;;5.32;;
34902;SDS011;21114;44.840;0.214;2023-01-24T14:51:13;7.18;;;5.63;;
34902;SDS011;21114;44.840;0.214;2023-01-24T14:54:18;10.57;;;6.47;;
34902;SDS011;21114;44.840;0.214;2023-01-24T14:57:33;7.00;;;5.00;;
34902;SDS011;21114;44.840;0.214;2023-01-24T15:00:14;7.30;;;4.90;;
34902;SDS011;21114;44.840;0.214;2023-01-24T15:03:30;10.10;;;6.43;;
34902;SDS011;21114;44.840;0.214;2023-01-24T15:06:44;9.30;;;5.55;;
34902;SDS011;21114;44.840;0.214;2023-01-24T15:09:11;7.57;;;5.85;;
34902;SDS011;21114;44.840;0.214;2023-01-24T15:12:29;8.80;;;6.60;;
34902;SDS011;21114;44.840;0.214;2023-01-24T15:15:45;6.68;;;5.45;;
34902;SDS011;21114;44.840;0.214;2023-01-24T15:21:06;7.32;;;6.47;;
34902;SDS011;21114;44.840;0.214;2023-01-24T15:24:28;8.48;;;6.32;;
34902;SDS011;21114;44.840;0.214;2023-01-24T15:35:45;6.32;;;5.50;;
34902;SDS011;21114;44.840;0.214;2023-01-24T15:39:00;6.93;;;5.70;;
34902;SDS011;21114;44.840;0.214;2023-01-24T15:41:34;8.20;;;5.68;;
34902;SDS011;21114;44.840;0.214;2023-01-24T15:45:06;6.93;;;5.22;;
34902;SDS011;21114;44.840;0.214;2023-01-24T15:47:32;6.50;;;5.47;;
34902;SDS011;21114;44.840;0.214;2023-01-24T15:50:26;8.25;;;5.35;;
34902;SDS011;21114;44.840;0.214;2023-01-24T15:56:00;11.75;;;10.07;;
34902;SDS011;21114;44.840;0.214;2023-01-24T15:59:15;10.55;;;8.40;;
34902;SDS011;21114;44.840;0.214;2023-01-24T16:02:30;9.02;;;7.75;;
34902;SDS011;21114;44.840;0.214;2023-01-24T16:04:57;8.95;;;7.45;;
34902;SDS011;21114;44.840;0.214;2023-01-24T16:08:11;10.30;;;7.07;;
34902;SDS011;21114;44.840;0.214;2023-01-24T16:10:43;9.63;;;6.80;;
34902;SDS011;21114;44.840;0.214;2023-01-24T16:16:04;12.60;;;10.80;;
34902;SDS011;21114;44.840;0.214;2023-01-24T16:19:21;12.50;;;9.27;;
34902;SDS011;21114;44.840;0.214;2023-01-24T16:21:48;11.63;;;9.13;;
34902;SDS011;21114;44.840;0.214;2023-01-24T16:24:15;14.55;;;10.52;;
34902;SDS011;21114;44.840;0.214;2023-01-24T16:26:43;13.15;;;9.18;;
34902;SDS011;21114;44.840;0.214;2023-01-24T16:29:59;14.13;;;10.50;;
34902;SDS011;21114;44.840;0.214;2023-01-24T16:32:25;20.90;;;15.32;;
34902;SDS011;21114;44.840;0.214;2023-01-24T16:34:53;18.05;;;12.60;;
34902;SDS011;21114;44.840;0.214;2023-01-24T16:37:19;16.75;;;12.93;;
34902;SDS011;21114;44.840;0.214;2023-01-24T16:39:45;16.33;;;11.93;;
34902;SDS011;21114;44.840;0.214;2023-01-24T16:42:12;16.95;;;13.57;;
34902;SDS011;21114;44.840;0.214;2023-01-24T16:45:28;16.88;;;13.25;;
34902;SDS011;21114;44.840;0.214;2023-01-24T16:47:54;16.00;;;12.00;;
34902;SDS011;21114;44.840;0.214;2023-01-24T16:50:20;11.88;;;9.32;;
34902;SDS011;21114;44.840;0.214;2023-01-24T16:52:46;9.77;;;8.70;;
34902;SDS011;21114;44.840;0.214;2023-01-24T16:55:12;9.68;;;7.55;;
34902;SDS011;21114;44.840;0.214;2023-01-24T16:57:38;11.80;;;9.25;;
34902;SDS011;21114;44.840;0.214;2023-01-24T17:00:05;11.70;;;8.70;;
34902;SDS011;21114;44.840;0.214;2023-01-24T17:03:20;11.95;;;9.57;;
34902;SDS011;21114;44.840;0.214;2023-01-24T17:05:46;8.95;;;7.25;;
34902;SDS011;21114;44.840;0.214;2023-01-24T17:08:14;11.18;;;8.20;;
34902;SDS011;21114;44.840;0.214;2023-01-24T17:11:30;10.35;;;7.55;;
34902;SDS011;21114;44.840;0.214;2023-01-24T17:13:57;10.02;;;7.65;;
34902;SDS011;21114;44.840;0.214;2023-01-24T17:17:12;13.32;;;8.30;;
34902;SDS011;21114;44.840;0.214;2023-01-24T17:19:38;9.15;;;7.72;;
34902;SDS011;21114;44.840;0.214;2023-01-24T17:22:04;12.95;;;8.43;;
34902;SDS011;21114;44.840;0.214;2023-01-24T17:25:19;10.63;;;7.82;;
34902;SDS011;21114;44.840;0.214;2023-01-24T17:27:45;10.55;;;7.88;;
34902;SDS011;21114;44.840;0.214;2023-01-24T17:30:12;12.68;;;9.02;;
34902;SDS011;21114;44.840;0.214;2023-01-24T17:32:38;12.93;;;9.40;;
34902;SDS011;21114;44.840;0.214;2023-01-24T17:35:07;11.45;;;8.13;;
34902;SDS011;21114;44.840;0.214;2023-01-24T17:37:34;12.95;;;9.93;;
34902;SDS011;21114;44.840;0.214;2023-01-24T17:40:00;12.98;;;10.63;;
34902;SDS011;21114;44.840;0.214;2023-01-24T17:42:26;11.15;;;8.75;;
34902;SDS011;21114;44.840;0.214;2023-01-24T17:44:52;11.27;;;9.05;;
34902;SDS011;21114;44.840;0.214;2023-01-24T17:47:18;13.77;;;8.30;;
34902;SDS011;21114;44.840;0.214;2023-01-24T17:49:44;12.43;;;10.10;;
34902;SDS011;21114;44.840;0.214;2023-01-24T17:52:10;14.48;;;10.38;;
34902;SDS011;21114;44.840;0.214;2023-01-24T17:54:37;10.60;;;8.32;;
34902;SDS011;21114;44.840;0.214;2023-01-24T17:57:03;12.52;;;8.40;;
34902;SDS011;21114;44.840;0.214;2023-01-24T17:59:29;13.13;;;9.88;;
34902;SDS011;21114;44.840;0.214;2023-01-24T18:01:55;10.25;;;8.07;;
34902;SDS011;21114;44.840;0.214;2023-01-24T18:04:21;10.88;;;9.13;;
34902;SDS011;21114;44.840;0.214;2023-01-24T18:06:47;12.20;;;10.00;;
34902;SDS011;21114;44.840;0.214;2023-01-24T18:09:13;13.18;;;10.35;;
34902;SDS011;21114;44.840;0.214;2023-01-24T18:11:39;11.43;;;10.10;;
34902;SDS011;21114;44.840;0.214;2023-01-24T18:14:05;12.52;;;8.45;;
34902;SDS011;21114;44.840;0.214;2023-01-24T18:16:32;12.02;;;8.77;;
34902;SDS011;21114;44.840;0.214;2023-01-24T18:18:58;9.00;;;7.38;;
34902;SDS011;21114;44.840;0.214;2023-01-24T18:21:25;14.02;;;9.90;;
34902;SDS011;21114;44.840;0.214;2023-01-24T18:24:39;13.25;;;10.15;;
34902;SDS011;21114;44.840;0.214;2023-01-24T18:27:06;10.95;;;8.75;;
34902;SDS011;21114;44.840;0.214;2023-01-24T18:29:32;11.43;;;9.10;;
34902;SDS011;21114;44.840;0.214;2023-01-24T18:31:58;12.15;;;8.45;;
34902;SDS011;21114;44.840;0.214;2023-01-24T18:34:24;10.07;;;8.27;;
34902;SDS011;21114;44.840;0.214;2023-01-24T18:36:50;13.45;;;10.75;;
34902;SDS011;21114;44.840;0.214;2023-01-24T18:39:16;15.30;;;11.45;;
34902;SDS011;21114;44.840;0.214;2023-01-24T18:41:42;12.77;;;9.68;;